createdAt,value
2022-09-18T00:00:42.482Z,7.20
2022-09-18T00:03:14.838Z,6.20
2022-09-18T00:05:46.358Z,6.28
2022-09-18T00:08:17.377Z,7.13
2022-09-18T00:10:52.278Z,7.18
2022-09-18T00:13:23.026Z,7.03
2022-09-18T00:15:59.944Z,7.65
2022-09-18T00:18:31.090Z,7.10
2022-09-18T00:21:15.671Z,7.00
2022-09-18T00:23:47.593Z,7.43
2022-09-18T00:26:20.863Z,7.45
2022-09-18T00:28:51.919Z,7.18
2022-09-18T00:31:28.479Z,7.63
2022-09-18T00:34:01.275Z,7.63
2022-09-18T00:36:33.193Z,8.52
2022-09-18T00:39:05.727Z,8.25
2022-09-18T00:41:42.720Z,8.23
2022-09-18T00:44:38.302Z,8.00
2022-09-18T00:47:15.240Z,8.15
2022-09-18T00:50:11.018Z,9.02
2022-09-18T00:52:57.231Z,8.13
2022-09-18T00:55:38.415Z,8.25
2022-09-18T00:58:09.414Z,8.93
2022-09-18T01:00:40.946Z,9.40
2022-09-18T01:03:12.049Z,9.43
2022-09-18T01:08:41.873Z,10.43
2022-09-18T01:11:42.317Z,11.27
2022-09-18T01:14:31.829Z,10.75
2022-09-18T01:17:39.977Z,11.55
2022-09-18T01:20:40.427Z,9.48
2022-09-18T01:23:22.081Z,10.13
2022-09-18T01:26:04.821Z,11.10
2022-09-18T01:29:01.651Z,11.05
2022-09-18T01:31:37.462Z,11.68
2022-09-18T01:34:27.076Z,10.10
2022-09-18T01:37:06.020Z,10.40
2022-09-18T01:39:57.104Z,12.43
2022-09-18T01:42:31.936Z,10.30
2022-09-18T01:45:08.352Z,11.43
2022-09-18T01:47:51.103Z,10.50
2022-09-18T01:50:24.535Z,11.63
2022-09-18T01:53:24.330Z,12.52
2022-09-18T01:56:16.845Z,12.70
2022-09-18T01:58:49.848Z,11.73
2022-09-18T02:01:25.736Z,12.90
2022-09-18T02:04:04.325Z,12.48
2022-09-18T02:06:41.246Z,10.95
2022-09-18T02:09:14.438Z,12.02
2022-09-18T02:11:49.662Z,12.43
2022-09-18T02:14:31.185Z,11.77
2022-09-18T02:17:42.080Z,10.45
2022-09-18T02:20:22.361Z,12.05
2022-09-18T02:22:59.524Z,13.35
2022-09-18T02:26:00.391Z,11.55
2022-09-18T02:28:34.769Z,10.52
2022-09-18T02:31:06.135Z,10.27
2022-09-18T02:33:39.499Z,10.27
2022-09-18T02:36:25.708Z,11.25
2022-09-18T02:39:12.314Z,11.07
2022-09-18T02:42:07.630Z,10.27
2022-09-18T02:45:15.307Z,10.00
2022-09-18T02:48:11.722Z,9.93
2022-09-18T02:51:04.503Z,9.73
2022-09-18T02:53:52.629Z,8.77
2022-09-18T02:56:35.346Z,8.60
2022-09-18T02:59:25.496Z,14.00
2022-09-18T03:02:01.795Z,12.05
2022-09-18T03:04:35.644Z,12.07
2022-09-18T03:07:08.970Z,13.68
2022-09-18T03:09:49.192Z,13.82
2022-09-18T03:12:20.003Z,12.80
2022-09-18T03:14:52.740Z,11.98
2022-09-18T03:17:23.950Z,10.65
2022-09-18T03:19:55.382Z,10.23
2022-09-18T03:22:26.475Z,8.60
2022-09-18T03:27:28.816Z,7.25
2022-09-18T03:30:00.153Z,8.50
2022-09-18T03:32:35.121Z,10.38
2022-09-18T03:35:09.469Z,8.32
2022-09-18T03:37:40.794Z,7.63
2022-09-18T03:40:14.109Z,5.93
2022-09-18T03:42:48.967Z,6.05
2022-09-18T03:45:20.453Z,5.25
2022-09-18T03:47:51.525Z,5.45
2022-09-18T03:50:23.222Z,4.85
2022-09-18T03:52:54.326Z,5.10
2022-09-18T03:55:43.329Z,4.28
2022-09-18T03:58:32.319Z,4.28
2022-09-18T04:01:10.040Z,4.30
2022-09-18T04:04:00.827Z,3.65
2022-09-18T04:06:50.303Z,4.70
2022-09-18T04:09:41.316Z,4.55
2022-09-18T04:12:12.921Z,4.28
2022-09-18T04:14:46.885Z,4.28
2022-09-18T04:17:18.425Z,3.90
2022-09-18T04:19:53.462Z,3.78
2022-09-18T04:22:25.618Z,4.38
2022-09-18T04:24:56.550Z,3.55
2022-09-18T04:27:27.479Z,4.32
2022-09-18T04:29:58.621Z,4.40
2022-09-18T04:32:29.798Z,5.20
2022-09-18T04:35:00.947Z,6.97
2022-09-18T04:37:32.310Z,7.93
2022-09-18T04:40:05.455Z,8.35
2022-09-18T04:42:37.951Z,7.70
2022-09-18T04:45:11.436Z,7.80
2022-09-18T04:47:43.954Z,7.30
2022-09-18T04:50:14.913Z,7.40
2022-09-18T04:53:05.570Z,7.55
2022-09-18T04:55:37.675Z,8.07
2022-09-18T04:58:08.749Z,7.68
2022-09-18T05:00:41.010Z,7.50
2022-09-18T05:05:45.031Z,7.03
2022-09-18T05:08:16.858Z,7.88
2022-09-18T05:10:48.283Z,8.63
2022-09-18T05:13:21.498Z,8.73
2022-09-18T05:16:02.460Z,10.20
2022-09-18T05:18:34.803Z,9.10
2022-09-18T05:21:08.151Z,8.73
2022-09-18T05:23:40.561Z,8.90
2022-09-18T05:26:14.879Z,8.68
2022-09-18T05:28:45.696Z,8.63
2022-09-18T05:31:16.595Z,8.18
2022-09-18T05:33:49.917Z,8.57
2022-09-18T05:36:20.977Z,8.20
2022-09-18T05:38:54.313Z,9.25
2022-09-18T05:41:26.691Z,8.57
2022-09-18T05:43:57.660Z,8.98
2022-09-18T05:46:28.690Z,8.80
2022-09-18T05:49:04.063Z,8.73
2022-09-18T05:54:05.789Z,8.23
2022-09-18T05:56:46.469Z,8.43
2022-09-18T05:59:17.797Z,8.50
2022-09-18T06:01:51.312Z,7.47
2022-09-18T06:04:30.814Z,8.52
2022-09-18T06:07:04.791Z,7.68
2022-09-18T06:12:06.347Z,8.38
2022-09-18T06:14:40.060Z,8.30
2022-09-18T06:17:10.884Z,8.43
2022-09-18T06:19:41.778Z,8.27
2022-09-18T06:22:13.536Z,7.97
2022-09-18T06:24:45.955Z,8.70
2022-09-18T06:27:22.564Z,8.35
2022-09-18T06:29:53.900Z,7.82
2022-09-18T06:32:35.485Z,7.65
2022-09-18T06:35:07.072Z,7.28
2022-09-18T06:37:38.835Z,7.93
2022-09-18T06:40:21.699Z,7.93
2022-09-18T06:43:10.650Z,7.32
2022-09-18T06:46:07.345Z,8.30
2022-09-18T06:48:43.704Z,7.75
2022-09-18T06:51:15.411Z,8.07
2022-09-18T06:54:07.223Z,7.15
2022-09-18T06:56:38.097Z,7.80
2022-09-18T06:59:12.977Z,7.75
2022-09-18T07:01:44.594Z,7.57
2022-09-18T07:04:23.906Z,7.15
2022-09-18T07:06:54.937Z,7.10
2022-09-18T07:09:25.896Z,8.07
2022-09-18T07:11:56.728Z,8.63
2022-09-18T07:14:36.532Z,7.80
2022-09-18T07:17:19.156Z,9.45
2022-09-18T07:19:52.767Z,8.95
2022-09-18T07:22:27.253Z,8.93
2022-09-18T07:24:58.297Z,9.50
2022-09-18T07:27:29.182Z,9.57
2022-09-18T07:30:00.090Z,8.85
2022-09-18T07:32:31.580Z,8.45
2022-09-18T07:35:03.705Z,8.48
2022-09-18T07:37:36.217Z,7.90
2022-09-18T07:40:33.714Z,8.10
2022-09-18T07:43:12.957Z,7.32
2022-09-18T07:45:53.765Z,7.28
2022-09-18T07:48:27.221Z,7.90
2022-09-18T07:51:01.775Z,7.55
2022-09-18T07:53:35.172Z,7.95
2022-09-18T07:56:10.953Z,7.32
2022-09-18T07:58:42.902Z,7.25
2022-09-18T08:01:18.091Z,6.90
2022-09-18T08:03:53.223Z,7.22
2022-09-18T08:06:39.382Z,8.02
2022-09-18T08:09:16.860Z,7.35
2022-09-18T08:11:56.889Z,7.57
2022-09-18T08:14:42.057Z,7.97
2022-09-18T08:17:48.540Z,8.30
2022-09-18T08:20:33.436Z,7.60
2022-09-18T08:23:33.888Z,8.18
2022-09-18T08:26:07.225Z,7.15
2022-09-18T08:28:38.808Z,7.55
2022-09-18T08:31:10.561Z,7.47
2022-09-18T08:33:43.248Z,8.32
2022-09-18T08:36:14.869Z,7.10
2022-09-18T08:38:58.523Z,7.55
2022-09-18T08:41:53.233Z,7.45
2022-09-18T08:44:30.806Z,7.15
2022-09-18T08:47:13.340Z,6.50
2022-09-18T08:49:56.404Z,6.53
2022-09-18T08:53:23.531Z,8.93
2022-09-18T08:56:31.817Z,5.28
2022-09-18T08:59:46.669Z,6.28
2022-09-18T09:02:40.504Z,5.10
2022-09-18T09:05:37.580Z,5.00
2022-09-18T09:08:45.711Z,5.70
2022-09-18T09:11:49.780Z,4.47
2022-09-18T09:14:56.712Z,5.05
2022-09-18T09:17:55.267Z,4.40
2022-09-18T09:20:53.430Z,4.97
2022-09-18T09:24:00.758Z,4.90
2022-09-18T09:26:55.099Z,5.20
2022-09-18T09:30:20.054Z,5.03
2022-09-18T09:33:33.863Z,4.95
2022-09-18T09:36:19.329Z,4.88
2022-09-18T09:38:56.722Z,5.18
2022-09-18T09:41:58.990Z,5.70
2022-09-18T09:44:41.279Z,5.22
2022-09-18T09:47:49.086Z,4.80
2022-09-18T09:50:36.311Z,5.10
2022-09-18T09:53:14.590Z,5.18
2022-09-18T09:55:59.375Z,6.80
2022-09-18T09:58:48.917Z,7.13
2022-09-18T10:02:00.556Z,6.57
2022-09-18T10:04:50.110Z,6.97
2022-09-18T10:07:47.128Z,6.63
2022-09-18T10:10:50.462Z,6.25
2022-09-18T10:13:26.298Z,6.82
2022-09-18T10:16:13.683Z,6.50
2022-09-18T10:18:53.445Z,6.05
2022-09-18T10:24:18.001Z,6.55
2022-09-18T10:26:55.374Z,6.40
2022-09-18T10:29:26.927Z,6.55
2022-09-18T10:32:05.206Z,7.32
2022-09-18T10:34:51.547Z,6.35
2022-09-18T10:37:31.333Z,6.47
2022-09-18T10:40:10.439Z,7.18
2022-09-18T10:42:42.316Z,7.35
2022-09-18T10:45:32.600Z,7.18
2022-09-18T10:48:27.699Z,7.32
2022-09-18T10:51:07.453Z,6.90
2022-09-18T10:53:45.319Z,6.93
2022-09-18T10:56:24.270Z,7.38
2022-09-18T10:58:58.106Z,7.63
2022-09-18T11:01:29.431Z,7.07
2022-09-18T11:04:05.388Z,7.03
2022-09-18T11:06:47.232Z,6.57
2022-09-18T11:09:36.449Z,5.57
2022-09-18T11:12:08.737Z,5.47
2022-09-18T11:14:49.730Z,6.28
2022-09-18T11:17:42.816Z,5.75
2022-09-18T11:20:43.810Z,6.03
2022-09-18T11:23:32.435Z,5.40
2022-09-18T11:26:23.428Z,5.40
2022-09-18T11:29:24.621Z,5.35
2022-09-18T11:34:36.059Z,6.35
2022-09-18T11:37:16.991Z,6.57
2022-09-18T11:39:58.647Z,6.25
2022-09-18T11:42:30.518Z,6.43
2022-09-18T11:45:56.134Z,5.82
2022-09-18T11:49:04.293Z,4.70
2022-09-18T11:52:04.607Z,7.13
2022-09-18T11:55:03.173Z,5.50
2022-09-18T11:57:41.592Z,5.95
2022-09-18T12:00:25.388Z,5.82
2022-09-18T12:03:18.888Z,5.32
2022-09-18T12:06:01.715Z,4.57
2022-09-18T12:09:00.288Z,5.00
2022-09-18T12:11:58.314Z,5.07
2022-09-18T12:14:39.324Z,5.43
2022-09-18T12:17:44.910Z,4.85
2022-09-18T12:20:32.426Z,4.55
2022-09-18T12:23:06.084Z,5.00
2022-09-18T12:29:18.616Z,4.80
2022-09-18T12:32:07.059Z,4.65
2022-09-18T12:34:52.615Z,5.22
2022-09-18T12:37:48.281Z,4.57
2022-09-18T12:40:38.972Z,4.63
2022-09-18T12:43:28.111Z,4.25
2022-09-18T12:46:07.385Z,3.88
2022-09-18T12:48:59.239Z,3.22
2022-09-18T12:54:23.154Z,3.63
2022-09-18T12:57:25.309Z,3.63
2022-09-18T13:00:15.433Z,3.03
2022-09-18T13:02:51.303Z,2.75
2022-09-18T13:05:33.747Z,3.20
2022-09-18T13:08:31.606Z,2.35
2022-09-18T13:11:16.088Z,2.60
2022-09-18T13:13:55.573Z,2.03
2022-09-18T13:16:50.517Z,1.63
2022-09-18T13:19:24.932Z,1.52
2022-09-18T13:21:56.370Z,1.50
2022-09-18T13:24:32.666Z,1.65
2022-09-18T13:27:08.083Z,1.55
2022-09-18T13:30:00.273Z,1.70
2022-09-18T13:32:37.917Z,1.40
2022-09-18T13:35:17.612Z,1.63
2022-09-18T13:37:49.433Z,1.60
2022-09-18T13:40:33.808Z,1.58
2022-09-18T13:43:30.897Z,1.20
2022-09-18T13:46:11.369Z,1.40
2022-09-18T13:48:51.639Z,1.70
2022-09-18T13:51:31.079Z,1.55
2022-09-18T13:54:23.054Z,1.50
2022-09-18T13:57:17.781Z,1.35
2022-09-18T13:59:58.439Z,1.50
2022-09-18T14:02:36.255Z,2.00
2022-09-18T14:05:33.179Z,1.48
2022-09-18T14:08:21.948Z,1.48
2022-09-18T14:11:13.777Z,1.70
2022-09-18T14:13:45.395Z,1.37
2022-09-18T14:16:16.215Z,1.70
2022-09-18T14:18:47.052Z,1.63
2022-09-18T14:21:20.932Z,1.80
2022-09-18T14:23:52.504Z,1.73
2022-09-18T14:26:37.662Z,1.50
2022-09-18T14:29:20.894Z,1.70
2022-09-18T14:31:57.454Z,1.65
2022-09-18T14:34:33.373Z,1.65
2022-09-18T14:37:28.588Z,1.60
2022-09-18T14:40:01.370Z,1.65
2022-09-18T14:42:38.102Z,1.90
2022-09-18T14:45:24.075Z,1.70
2022-09-18T14:47:55.540Z,1.90
2022-09-18T14:50:40.337Z,2.33
2022-09-18T14:53:32.112Z,2.10
2022-09-18T14:58:46.311Z,2.15
2022-09-18T15:01:27.101Z,2.17
2022-09-18T15:04:00.942Z,2.25
2022-09-18T15:06:40.552Z,2.22
2022-09-18T15:09:13.884Z,2.17
2022-09-18T15:12:01.940Z,2.63
2022-09-18T15:14:46.807Z,2.70
2022-09-18T15:17:24.353Z,2.40
2022-09-18T15:20:19.291Z,2.60
2022-09-18T15:22:51.543Z,2.83
2022-09-18T15:25:35.855Z,2.88
2022-09-18T15:28:09.676Z,2.90
2022-09-18T15:30:41.764Z,2.67
2022-09-18T15:33:23.945Z,2.88
2022-09-18T15:35:56.136Z,2.88
2022-09-18T15:38:34.020Z,3.10
2022-09-18T15:41:44.349Z,2.55
2022-09-18T15:44:38.577Z,2.72
2022-09-18T15:47:33.812Z,2.58
2022-09-18T15:50:26.556Z,2.67
2022-09-18T15:53:00.979Z,2.80
2022-09-18T15:55:54.013Z,3.08
2022-09-18T15:58:43.962Z,2.70
2022-09-18T16:01:21.328Z,2.90
2022-09-18T16:04:06.657Z,2.90
2022-09-18T16:06:52.704Z,2.53
2022-09-18T16:09:34.934Z,2.97
2022-09-18T16:12:30.103Z,3.03
2022-09-18T16:15:22.906Z,3.05
2022-09-18T16:18:07.345Z,3.28
2022-09-18T16:20:52.487Z,3.22
2022-09-18T16:23:37.251Z,2.63
2022-09-18T16:26:18.083Z,2.95
2022-09-18T16:28:50.892Z,2.63
2022-09-18T16:31:27.549Z,2.70
2022-09-18T16:34:07.325Z,2.88
2022-09-18T16:36:44.344Z,2.72
2022-09-18T16:39:17.376Z,3.20
2022-09-18T16:41:49.600Z,2.92
2022-09-18T16:44:21.603Z,3.33
2022-09-18T16:47:04.448Z,3.00
2022-09-18T16:49:41.016Z,2.53
2022-09-18T16:52:13.043Z,2.60
2022-09-18T16:54:43.952Z,2.90
2022-09-18T16:57:21.021Z,2.50
2022-09-18T16:59:54.172Z,2.67
2022-09-18T17:02:26.183Z,2.80
2022-09-18T17:04:57.685Z,2.45
2022-09-18T17:07:28.641Z,2.40
2022-09-18T17:10:00.914Z,2.73
2022-09-18T17:12:31.970Z,2.75
2022-09-18T17:15:02.703Z,2.42
2022-09-18T17:17:33.863Z,2.63
2022-09-18T17:20:05.894Z,2.53
2022-09-18T17:22:37.011Z,2.35
2022-09-18T17:25:08.091Z,2.50
2022-09-18T17:30:15.395Z,2.40
2022-09-18T17:32:46.317Z,2.70
2022-09-18T17:35:18.491Z,2.45
2022-09-18T17:37:49.460Z,2.65
2022-09-18T17:40:22.103Z,2.25
2022-09-18T17:42:53.104Z,2.58
2022-09-18T17:45:23.854Z,2.42
2022-09-18T17:47:57.948Z,2.92
2022-09-18T17:50:28.878Z,2.50
2022-09-18T17:52:59.956Z,2.03
2022-09-18T17:55:31.176Z,2.60
2022-09-18T17:58:02.184Z,2.28
2022-09-18T18:00:33.140Z,2.25
2022-09-18T18:03:04.204Z,2.70
2022-09-18T18:05:35.154Z,2.40
2022-09-18T18:08:06.143Z,2.33
2022-09-18T18:10:39.508Z,2.30
2022-09-18T18:13:10.438Z,2.70
2022-09-18T18:15:41.277Z,2.50
2022-09-18T18:18:12.087Z,2.53
2022-09-18T18:20:43.214Z,2.42
2022-09-18T18:23:14.416Z,2.50
2022-09-18T18:28:16.314Z,2.75
2022-09-18T18:30:50.335Z,2.55
2022-09-18T18:33:21.098Z,2.65
2022-09-18T18:35:52.124Z,2.40
2022-09-18T18:38:23.795Z,2.78
2022-09-18T18:40:54.805Z,2.60
2022-09-18T18:43:26.606Z,2.30
2022-09-18T18:45:59.189Z,2.47
2022-09-18T18:48:29.950Z,2.70
2022-09-18T18:51:02.228Z,2.90
2022-09-18T18:53:33.902Z,2.75
2022-09-18T18:56:10.516Z,2.80
2022-09-18T18:58:41.775Z,3.30
2022-09-18T19:03:53.987Z,2.80
2022-09-18T19:06:29.131Z,2.83
2022-09-18T19:09:04.756Z,2.83
2022-09-18T19:11:37.101Z,3.03
2022-09-18T19:14:08.278Z,2.50
2022-09-18T19:19:12.231Z,2.70
2022-09-18T19:21:43.562Z,2.72
2022-09-18T19:24:15.485Z,2.60
2022-09-18T19:26:46.521Z,2.80
2022-09-18T19:29:19.990Z,2.78
2022-09-18T19:31:51.791Z,3.17
2022-09-18T19:34:24.975Z,2.70
2022-09-18T19:36:56.309Z,3.20
2022-09-18T19:42:04.305Z,2.90
2022-09-18T19:44:43.265Z,2.83
2022-09-18T19:47:29.651Z,3.33
2022-09-18T19:50:02.447Z,3.05
2022-09-18T19:52:33.448Z,3.13
2022-09-18T19:55:04.213Z,3.20
2022-09-18T19:57:35.254Z,3.30
2022-09-18T20:00:08.153Z,2.90
2022-09-18T20:02:42.791Z,2.85
2022-09-18T20:07:44.953Z,2.92
2022-09-18T20:10:17.555Z,3.00
2022-09-18T20:12:48.742Z,3.20
2022-09-18T20:15:19.557Z,2.95
2022-09-18T20:17:50.350Z,3.35
2022-09-18T20:20:21.232Z,3.28
2022-09-18T20:22:56.768Z,3.08
2022-09-18T20:25:28.022Z,3.20
2022-09-18T20:30:29.481Z,2.95
2022-09-18T20:33:00.344Z,2.92
2022-09-18T20:35:31.129Z,2.90
2022-09-18T20:38:05.954Z,3.10
2022-09-18T20:40:37.272Z,3.10
2022-09-18T20:43:09.513Z,3.72
2022-09-18T20:45:40.351Z,3.50
2022-09-18T20:48:11.602Z,3.45
2022-09-18T20:50:42.666Z,2.80
2022-09-18T20:53:13.535Z,3.13
2022-09-18T20:55:44.351Z,3.45
2022-09-18T20:58:17.342Z,3.13
2022-09-18T21:00:49.602Z,3.05
2022-09-18T21:03:22.819Z,3.28
2022-09-18T21:06:07.614Z,2.97
2022-09-18T21:08:47.148Z,2.85
2022-09-18T21:11:30.225Z,3.45
2022-09-18T21:14:04.057Z,3.58
2022-09-18T21:16:37.923Z,3.30
2022-09-18T21:19:09.210Z,3.40
2022-09-18T21:21:40.373Z,3.22
2022-09-18T21:24:12.345Z,3.35
2022-09-18T21:26:48.622Z,3.72
2022-09-18T21:29:23.507Z,3.33
2022-09-18T21:32:02.693Z,3.58
2022-09-18T21:34:36.134Z,3.75
2022-09-18T21:37:10.853Z,3.45
2022-09-18T21:39:42.065Z,3.88
2022-09-18T21:42:13.095Z,3.58
2022-09-18T21:44:43.982Z,3.80
2022-09-18T21:47:15.821Z,4.05
2022-09-18T21:49:46.734Z,3.60
2022-09-18T21:52:17.756Z,3.90
2022-09-18T21:54:50.235Z,3.95
2022-09-18T21:57:21.541Z,4.28
2022-09-18T21:59:52.618Z,4.30
2022-09-18T22:02:24.700Z,3.95
2022-09-18T22:04:56.878Z,4.05
2022-09-18T22:07:27.747Z,4.43
2022-09-18T22:09:58.442Z,4.80
2022-09-18T22:12:29.371Z,5.00
2022-09-18T22:15:00.435Z,4.40
2022-09-18T22:17:31.453Z,4.95
2022-09-18T22:20:02.259Z,5.32
2022-09-18T22:27:52.251Z,5.60
2022-09-18T22:30:23.497Z,5.50
2022-09-18T22:32:54.174Z,5.60
2022-09-18T22:35:24.913Z,5.27
2022-09-18T22:37:56.220Z,5.90
2022-09-18T22:42:58.675Z,6.20
2022-09-18T22:45:29.374Z,6.07
2022-09-18T22:48:00.140Z,6.77
2022-09-18T22:50:31.124Z,5.68
2022-09-18T22:53:01.990Z,6.30
2022-09-18T22:55:34.090Z,6.68
2022-09-18T22:58:09.017Z,6.25
2022-09-18T23:00:39.919Z,6.95
2022-09-18T23:03:10.874Z,6.70
2022-09-18T23:05:42.660Z,7.93
2022-09-18T23:08:14.056Z,6.38
2022-09-18T23:10:45.163Z,6.90
2022-09-18T23:13:16.051Z,6.93
2022-09-18T23:15:46.965Z,7.18
2022-09-18T23:18:18.079Z,7.40
2022-09-18T23:20:49.084Z,7.88
2022-09-18T23:23:19.946Z,7.93
2022-09-18T23:25:50.764Z,7.63
2022-09-18T23:28:21.570Z,7.82
2022-09-18T23:30:52.304Z,7.15
2022-09-18T23:33:22.870Z,7.70
2022-09-18T23:35:54.196Z,8.37
2022-09-18T23:41:04.214Z,8.98
2022-09-18T23:43:35.519Z,9.10
2022-09-18T23:48:37.351Z,8.97
2022-09-18T23:51:08.159Z,8.93
2022-09-18T23:53:39.019Z,8.65
2022-09-18T23:56:15.123Z,9.05
2022-09-18T23:58:47.579Z,9.80
